createdAt,value
2022-08-19T00:02:52.437Z,993.79
2022-08-19T00:07:52.152Z,993.76
2022-08-19T00:12:52.178Z,993.86
2022-08-19T00:17:52.014Z,993.82
2022-08-19T00:22:52.073Z,993.93
2022-08-19T00:27:51.886Z,994.07
2022-08-19T00:32:51.962Z,994.19
2022-08-19T00:37:51.772Z,994.24
2022-08-19T00:42:51.806Z,994.17
2022-08-19T00:47:51.805Z,994.13
2022-08-19T00:52:51.658Z,994.06
2022-08-19T00:57:51.536Z,994.19
2022-08-19T01:02:51.580Z,994.14
2022-08-19T01:07:51.385Z,994.02
2022-08-19T01:12:51.429Z,994.15
2022-08-19T01:17:51.266Z,994.06
2022-08-19T01:22:51.426Z,994.19
2022-08-19T01:27:53.294Z,994.29
2022-08-19T01:32:51.089Z,994.37
2022-08-19T01:37:51.013Z,994.42
2022-08-19T01:42:50.933Z,994.24
2022-08-19T01:48:01.109Z,994.23
2022-08-19T01:53:03.658Z,994.17
2022-08-19T01:57:51.745Z,994.42
2022-08-19T02:02:50.690Z,994.38
2022-08-19T02:07:50.627Z,994.25
2022-08-19T02:12:50.572Z,993.92
2022-08-19T02:17:50.508Z,993.78
2022-08-19T02:22:50.456Z,994.27
2022-08-19T02:27:50.400Z,994.43
2022-08-19T02:32:50.310Z,994.37
2022-08-19T02:37:50.249Z,994.29
2022-08-19T02:42:50.201Z,994.14
2022-08-19T02:47:50.122Z,994.17
2022-08-19T02:52:50.054Z,994.16
2022-08-19T02:57:50.167Z,994.33
2022-08-19T03:02:49.966Z,994.38
2022-08-19T03:07:49.895Z,994.32
2022-08-19T03:12:49.815Z,994.29
2022-08-19T03:17:49.745Z,994.19
2022-08-19T03:22:49.668Z,994.12
2022-08-19T03:27:49.663Z,994.32
2022-08-19T03:32:51.403Z,994.39
2022-08-19T03:37:50.489Z,994.51
2022-08-19T03:42:49.678Z,994.39
2022-08-19T03:47:49.362Z,994.47
2022-08-19T03:52:49.337Z,994.45
2022-08-19T03:57:49.238Z,994.54
2022-08-19T04:03:00.222Z,994.65
2022-08-19T04:07:50.110Z,994.45
2022-08-19T04:12:49.049Z,994.60
2022-08-19T04:17:48.985Z,994.49
2022-08-19T04:22:48.917Z,994.44
2022-08-19T04:27:48.852Z,994.42
2022-08-19T04:32:48.807Z,994.46
2022-08-19T04:37:48.728Z,994.47
2022-08-19T04:42:48.746Z,994.47
2022-08-19T04:47:58.427Z,994.52
2022-08-19T04:52:49.587Z,994.61
2022-08-19T04:57:48.503Z,994.57
2022-08-19T05:02:48.398Z,994.47
2022-08-19T05:07:48.361Z,994.49
2022-08-19T05:12:48.265Z,994.56
2022-08-19T05:17:48.217Z,994.67
2022-08-19T05:22:48.254Z,994.79
2022-08-19T05:27:48.086Z,994.98
2022-08-19T05:32:48.041Z,994.99
2022-08-19T05:37:47.953Z,995.09
2022-08-19T05:42:55.433Z,995.21
2022-08-19T05:47:48.837Z,995.33
2022-08-19T05:52:50.678Z,995.54
2022-08-19T05:57:47.691Z,995.49
2022-08-19T06:02:47.735Z,995.53
2022-08-19T06:07:47.609Z,995.72
2022-08-19T06:12:47.685Z,995.89
2022-08-19T06:17:47.524Z,996.00
2022-08-19T06:22:47.384Z,996.14
2022-08-19T06:28:14.134Z,996.18
2022-08-19T06:32:48.264Z,996.19
2022-08-19T06:37:47.227Z,996.29
2022-08-19T06:42:55.111Z,996.29
2022-08-19T06:47:48.045Z,996.33
2022-08-19T06:52:46.973Z,996.33
2022-08-19T06:57:46.966Z,996.54
2022-08-19T07:02:52.178Z,996.60
2022-08-19T07:07:47.786Z,996.62
2022-08-19T07:12:46.738Z,996.48
2022-08-19T07:17:48.003Z,996.44
2022-08-19T07:22:47.620Z,996.49
2022-08-19T07:27:46.586Z,996.67
2022-08-19T07:32:47.460Z,996.75
2022-08-19T07:37:46.390Z,996.81
2022-08-19T07:42:46.330Z,996.87
2022-08-19T07:47:49.616Z,996.82
2022-08-19T07:52:49.136Z,996.69
2022-08-19T07:57:46.127Z,996.65
2022-08-19T08:02:46.073Z,996.68
2022-08-19T08:07:46.301Z,996.86
2022-08-19T08:13:05.843Z,996.92
2022-08-19T08:17:49.443Z,996.91
2022-08-19T08:22:45.892Z,996.94
2022-08-19T08:27:45.777Z,997.05
2022-08-19T08:32:45.690Z,996.98
2022-08-19T08:37:45.608Z,997.09
2022-08-19T08:42:46.296Z,997.22
2022-08-19T08:47:45.489Z,997.34
2022-08-19T08:52:45.426Z,997.21
2022-08-19T08:57:45.389Z,997.15
2022-08-19T09:02:45.302Z,997.19
2022-08-19T09:07:47.489Z,997.22
2022-08-19T09:12:45.164Z,997.24
2022-08-19T09:17:45.119Z,997.28
2022-08-19T09:22:46.041Z,997.25
2022-08-19T09:27:45.165Z,996.97
2022-08-19T09:32:44.912Z,997.05
2022-08-19T09:37:44.924Z,996.89
2022-08-19T09:42:50.169Z,996.86
2022-08-19T09:47:45.716Z,996.81
2022-08-19T09:52:55.512Z,996.81
2022-08-19T09:57:45.587Z,996.80
2022-08-19T10:02:44.731Z,996.97
2022-08-19T10:07:44.449Z,996.97
2022-08-19T10:12:44.420Z,997.04
2022-08-19T10:17:48.234Z,996.92
2022-08-19T10:22:45.272Z,997.02
2022-08-19T10:27:46.572Z,997.12
2022-08-19T10:32:46.418Z,997.14
2022-08-19T10:37:57.320Z,997.25
2022-08-19T10:42:44.989Z,997.19
2022-08-19T10:47:43.973Z,997.14
2022-08-19T10:52:50.028Z,997.20
2022-08-19T10:58:01.745Z,997.37
2022-08-19T11:02:44.789Z,997.35
2022-08-19T11:07:43.682Z,997.43
2022-08-19T11:12:43.613Z,997.41
2022-08-19T11:17:43.584Z,997.56
2022-08-19T11:22:43.495Z,997.50
2022-08-19T11:27:43.434Z,997.50
2022-08-19T11:32:49.515Z,997.57
2022-08-19T11:37:43.564Z,997.65
2022-08-19T11:42:43.249Z,997.65
2022-08-19T11:47:43.178Z,997.51
2022-08-19T11:52:43.102Z,997.55
2022-08-19T11:57:43.051Z,997.62
2022-08-19T12:02:43.791Z,997.57
2022-08-19T12:07:42.901Z,997.67
2022-08-19T12:12:42.845Z,997.66
2022-08-19T12:17:42.770Z,997.78
2022-08-19T12:22:42.750Z,997.84
2022-08-19T12:27:46.848Z,997.83
2022-08-19T12:32:43.844Z,997.86
2022-08-19T12:37:42.506Z,997.88
2022-08-19T12:42:42.466Z,997.89
2022-08-19T12:47:42.386Z,997.93
2022-08-19T12:52:42.337Z,997.94
2022-08-19T12:57:42.269Z,998.00
2022-08-19T13:02:42.238Z,997.93
2022-08-19T13:07:42.132Z,997.85
2022-08-19T13:12:42.113Z,997.84
2022-08-19T13:17:42.001Z,997.79
2022-08-19T13:22:41.943Z,997.92
2022-08-19T13:27:41.872Z,997.94
2022-08-19T13:32:41.814Z,997.86
2022-08-19T13:37:41.743Z,997.95
2022-08-19T13:42:41.797Z,997.88
2022-08-19T13:47:42.488Z,997.83
2022-08-19T13:52:41.559Z,997.78
2022-08-19T13:57:41.486Z,997.81
2022-08-19T14:02:41.428Z,997.89
2022-08-19T14:07:41.388Z,997.83
2022-08-19T14:12:41.298Z,997.98
2022-08-19T14:17:41.263Z,997.98
2022-08-19T14:22:41.153Z,997.93
2022-08-19T14:27:41.092Z,997.89
2022-08-19T14:32:41.023Z,997.90
2022-08-19T14:37:45.413Z,998.00
2022-08-19T14:42:41.886Z,998.15
2022-08-19T14:47:41.058Z,998.08
2022-08-19T14:52:40.997Z,998.17
2022-08-19T14:57:40.707Z,998.15
2022-08-19T15:02:40.643Z,998.08
2022-08-19T15:07:40.539Z,997.95
2022-08-19T15:12:40.483Z,997.90
2022-08-19T15:17:45.313Z,998.08
2022-08-19T15:22:41.372Z,998.04
2022-08-19T15:27:40.295Z,998.08
2022-08-19T15:32:40.243Z,998.12
2022-08-19T15:37:40.164Z,998.02
2022-08-19T15:42:40.108Z,997.90
2022-08-19T15:47:40.025Z,997.86
2022-08-19T15:52:49.128Z,997.83
2022-08-19T15:57:40.974Z,997.75
2022-08-19T16:02:39.826Z,997.64
2022-08-19T16:07:39.797Z,997.56
2022-08-19T16:12:39.698Z,997.83
2022-08-19T16:17:39.639Z,997.82
2022-08-19T16:22:39.569Z,997.85
2022-08-19T16:27:39.523Z,997.78
2022-08-19T16:32:39.451Z,997.77
2022-08-19T16:37:39.372Z,997.68
2022-08-19T16:42:39.350Z,997.67
2022-08-19T16:47:39.240Z,997.57
2022-08-19T16:52:39.198Z,997.35
2022-08-19T16:57:39.135Z,997.56
2022-08-19T17:02:39.060Z,997.64
2022-08-19T17:07:38.986Z,997.57
2022-08-19T17:12:38.950Z,997.56
2022-08-19T17:17:38.839Z,997.67
2022-08-19T17:22:38.790Z,997.80
2022-08-19T17:27:38.739Z,997.78
2022-08-19T17:32:38.649Z,997.77
2022-08-19T17:37:38.591Z,997.74
2022-08-19T17:42:38.552Z,997.66
2022-08-19T17:47:38.512Z,997.61
2022-08-19T17:52:38.416Z,997.81
2022-08-19T17:57:38.396Z,998.10
2022-08-19T18:02:38.256Z,998.22
2022-08-19T18:07:38.178Z,998.31
2022-08-19T18:12:39.129Z,998.35
2022-08-19T18:17:38.066Z,998.54
2022-08-19T18:22:38.005Z,998.76
2022-08-19T18:27:37.894Z,998.97
2022-08-19T18:32:37.830Z,998.94
2022-08-19T18:37:37.767Z,999.00
2022-08-19T18:42:37.711Z,998.87
2022-08-19T18:47:37.672Z,998.66
2022-08-19T18:52:37.571Z,998.70
2022-08-19T18:57:37.502Z,998.66
2022-08-19T19:02:37.493Z,998.76
2022-08-19T19:07:37.551Z,998.68
2022-08-19T19:12:37.311Z,998.74
2022-08-19T19:17:37.234Z,998.66
2022-08-19T19:22:37.233Z,998.71
2022-08-19T19:27:37.163Z,998.67
2022-08-19T19:32:39.215Z,998.67
2022-08-19T19:37:37.018Z,998.52
2022-08-19T19:42:37.014Z,998.76
2022-08-19T19:47:36.849Z,998.88
2022-08-19T19:52:36.799Z,998.78
2022-08-19T19:57:36.730Z,998.61
2022-08-19T20:02:36.709Z,998.44
2022-08-19T20:07:36.602Z,998.64
2022-08-19T20:12:36.782Z,998.79
2022-08-19T20:17:36.489Z,998.78
2022-08-19T20:22:36.475Z,999.12
2022-08-19T20:27:38.888Z,999.24
2022-08-19T20:32:36.306Z,998.96
2022-08-19T20:37:36.237Z,999.01
2022-08-19T20:42:36.197Z,999.05
2022-08-19T20:47:36.127Z,999.04
2022-08-19T20:52:36.057Z,999.07
2022-08-19T20:57:36.009Z,999.06
2022-08-19T21:02:35.930Z,999.02
2022-08-19T21:07:39.322Z,998.87
2022-08-19T21:12:35.794Z,998.85
2022-08-19T21:17:35.991Z,998.90
2022-08-19T21:22:35.662Z,998.80
2022-08-19T21:27:35.611Z,999.01
2022-08-19T21:32:35.526Z,999.05
2022-08-19T21:37:35.466Z,999.02
2022-08-19T21:42:35.453Z,998.96
2022-08-19T21:47:35.408Z,998.99
2022-08-19T21:52:35.306Z,999.07
2022-08-19T21:57:35.242Z,998.83
2022-08-19T22:02:35.177Z,998.78
2022-08-19T22:07:35.088Z,998.86
2022-08-19T22:12:35.076Z,998.82
2022-08-19T22:17:34.969Z,998.93
2022-08-19T22:22:34.990Z,999.01
2022-08-19T22:27:34.843Z,999.10
2022-08-19T22:32:34.808Z,998.95
2022-08-19T22:37:34.715Z,998.91
2022-08-19T22:42:34.686Z,999.00
2022-08-19T22:47:35.553Z,999.03
2022-08-19T22:52:34.838Z,999.07
2022-08-19T22:57:34.480Z,999.14
2022-08-19T23:02:34.510Z,999.05
2022-08-19T23:07:34.336Z,998.96
2022-08-19T23:12:34.377Z,998.98
2022-08-19T23:17:34.307Z,998.89
2022-08-19T23:22:34.272Z,998.87
2022-08-19T23:27:34.248Z,998.76
2022-08-19T23:32:34.019Z,998.86
2022-08-19T23:37:33.950Z,998.82
2022-08-19T23:42:33.882Z,998.81
2022-08-19T23:47:33.883Z,998.78
2022-08-19T23:52:33.821Z,998.85
2022-08-19T23:57:33.683Z,998.83
